createdAt,value
2022-12-22T00:00:53.768Z,7.30
2022-12-22T00:06:14.029Z,6.97
2022-12-22T00:11:34.464Z,7.43
2022-12-22T00:16:57.111Z,6.80
2022-12-22T00:22:21.610Z,7.75
2022-12-22T00:27:47.460Z,7.50
2022-12-22T00:33:07.970Z,7.30
2022-12-22T00:38:47.048Z,7.55
2022-12-22T00:44:07.175Z,6.82
2022-12-22T00:49:27.750Z,7.15
2022-12-22T00:54:48.321Z,6.65
2022-12-22T01:00:09.728Z,6.65
2022-12-22T01:05:29.930Z,7.43
2022-12-22T01:10:50.897Z,7.30
2022-12-22T01:16:11.406Z,6.70
2022-12-22T01:21:32.027Z,7.10
2022-12-22T01:26:52.435Z,6.90
2022-12-22T01:32:12.894Z,7.00
2022-12-22T01:37:32.952Z,7.18
2022-12-22T01:42:54.060Z,6.53
2022-12-22T01:48:14.268Z,6.90
2022-12-22T01:53:38.247Z,6.82
2022-12-22T01:59:03.674Z,6.80
2022-12-22T02:04:25.047Z,6.80
2022-12-22T02:10:32.744Z,6.93
2022-12-22T02:15:58.547Z,6.70
2022-12-22T02:21:30.514Z,7.10
2022-12-22T02:26:55.956Z,7.07
2022-12-22T02:32:16.414Z,6.47
2022-12-22T02:37:59.831Z,6.45
2022-12-22T02:43:52.403Z,6.28
2022-12-22T02:49:35.845Z,6.10
2022-12-22T02:54:57.244Z,6.45
2022-12-22T03:00:17.559Z,6.72
2022-12-22T03:05:37.896Z,6.43
2022-12-22T03:10:58.306Z,6.35
2022-12-22T03:16:19.137Z,7.18
2022-12-22T03:21:39.267Z,6.63
2022-12-22T03:26:41.009Z,6.50
2022-12-22T03:31:42.838Z,6.35
2022-12-22T03:36:44.602Z,6.60
2022-12-22T03:42:04.906Z,6.53
2022-12-22T03:47:06.702Z,6.95
2022-12-22T03:52:08.416Z,6.53
2022-12-22T03:57:10.110Z,6.90
2022-12-22T04:02:12.011Z,6.60
2022-12-22T04:07:13.776Z,6.97
2022-12-22T04:12:34.022Z,6.05
2022-12-22T04:17:35.691Z,5.82
2022-12-22T04:22:37.424Z,5.57
2022-12-22T04:27:39.762Z,5.57
2022-12-22T04:32:41.493Z,5.40
2022-12-22T04:37:43.201Z,5.50
2022-12-22T04:42:44.890Z,4.82
2022-12-22T04:47:46.590Z,5.15
2022-12-22T04:52:48.269Z,5.50
2022-12-22T04:57:50.021Z,4.80
2022-12-22T05:02:52.836Z,5.25
2022-12-22T05:07:54.647Z,4.57
2022-12-22T05:12:57.057Z,4.55
2022-12-22T05:17:59.969Z,4.20
2022-12-22T05:23:01.726Z,3.88
2022-12-22T05:28:03.580Z,5.38
2022-12-22T05:33:05.262Z,4.60
2022-12-22T05:38:06.935Z,4.82
2022-12-22T05:43:10.126Z,4.45
2022-12-22T05:48:12.356Z,4.00
2022-12-22T05:53:14.041Z,4.03
2022-12-22T05:58:15.794Z,4.40
2022-12-22T06:03:17.902Z,3.95
2022-12-22T06:08:20.034Z,5.03
2022-12-22T06:13:22.102Z,4.45
2022-12-22T06:18:26.035Z,4.85
2022-12-22T06:23:27.803Z,4.38
2022-12-22T06:28:29.929Z,4.28
2022-12-22T06:33:31.690Z,4.40
2022-12-22T06:38:33.789Z,5.30
2022-12-22T06:43:35.549Z,5.47
2022-12-22T06:48:37.318Z,3.90
2022-12-22T06:53:39.058Z,4.93
2022-12-22T06:58:40.754Z,3.78
2022-12-22T07:03:42.582Z,4.07
2022-12-22T07:08:48.475Z,4.22
2022-12-22T07:13:50.225Z,3.72
2022-12-22T07:18:51.953Z,3.60
2022-12-22T07:23:53.653Z,3.90
2022-12-22T07:28:55.346Z,3.33
2022-12-22T07:33:57.094Z,3.13
2022-12-22T07:38:58.861Z,3.42
2022-12-22T07:44:01.566Z,3.30
2022-12-22T07:49:23.301Z,3.13
2022-12-22T07:54:25.568Z,2.83
2022-12-22T07:59:27.409Z,2.92
2022-12-22T08:04:29.248Z,3.13
2022-12-22T08:09:30.985Z,3.05
2022-12-22T08:14:32.709Z,3.30
2022-12-22T08:19:34.441Z,3.90
2022-12-22T08:24:36.131Z,3.30
2022-12-22T08:29:46.056Z,3.03
2022-12-22T08:34:50.777Z,3.80
2022-12-22T08:39:57.659Z,3.40
2022-12-22T08:44:59.358Z,2.60
2022-12-22T08:50:01.169Z,3.42
2022-12-22T08:55:03.077Z,2.85
2022-12-22T09:00:08.445Z,3.10
2022-12-22T09:05:10.251Z,3.00
2022-12-22T09:10:12.085Z,3.53
2022-12-22T09:15:14.750Z,4.65
2022-12-22T09:20:16.642Z,2.72
2022-12-22T09:25:18.355Z,2.85
2022-12-22T09:30:20.154Z,3.10
2022-12-22T09:35:21.837Z,4.50
2022-12-22T09:40:24.712Z,2.95
2022-12-22T09:45:26.456Z,3.15
2022-12-22T09:50:28.233Z,3.53
2022-12-22T09:55:47.358Z,3.30
2022-12-22T10:00:57.144Z,3.13
2022-12-22T10:06:14.750Z,3.40
2022-12-22T10:11:19.140Z,2.97
2022-12-22T10:16:23.990Z,2.65
2022-12-22T10:21:26.408Z,2.25
2022-12-22T10:26:32.557Z,2.50
2022-12-22T10:31:35.776Z,1.83
2022-12-22T10:36:38.713Z,2.28
2022-12-22T10:41:44.095Z,1.70
2022-12-22T10:46:51.176Z,2.03
2022-12-22T10:51:57.012Z,1.30
2022-12-22T10:57:07.723Z,2.63
2022-12-22T11:02:21.822Z,0.90
2022-12-22T11:07:24.399Z,1.58
2022-12-22T11:12:53.886Z,1.00
2022-12-22T11:18:10.817Z,1.60
2022-12-22T11:23:31.937Z,0.82
2022-12-22T11:28:39.253Z,0.90
2022-12-22T11:34:04.897Z,0.98
2022-12-22T11:39:16.100Z,1.00
2022-12-22T11:44:35.215Z,1.10
2022-12-22T11:49:51.805Z,0.93
2022-12-22T11:55:11.569Z,0.63
2022-12-22T12:00:15.605Z,0.80
2022-12-22T12:05:35.920Z,1.00
2022-12-22T12:10:51.794Z,1.20
2022-12-22T12:16:03.353Z,0.77
2022-12-22T12:21:08.070Z,1.10
2022-12-22T12:26:27.967Z,1.00
2022-12-22T12:31:34.234Z,0.70
2022-12-22T12:36:46.362Z,0.80
2022-12-22T12:42:06.529Z,0.75
2022-12-22T12:47:31.340Z,0.60
2022-12-22T12:52:39.352Z,0.80
2022-12-22T12:57:49.167Z,0.68
2022-12-22T13:02:58.306Z,0.80
2022-12-22T13:08:11.985Z,0.95
2022-12-22T13:13:34.678Z,0.98
2022-12-22T13:18:51.408Z,1.25
2022-12-22T13:24:27.878Z,1.20
2022-12-22T13:29:44.212Z,0.90
2022-12-22T13:35:29.171Z,1.05
2022-12-22T13:40:13.028Z,0.77
2022-12-22T13:45:28.531Z,1.02
2022-12-22T13:50:36.498Z,1.08
2022-12-22T13:55:38.572Z,1.23
2022-12-22T14:00:40.367Z,1.15
2022-12-22T14:05:42.065Z,1.50
2022-12-22T14:10:45.097Z,1.70
2022-12-22T14:15:47.039Z,1.63
2022-12-22T14:20:49.316Z,1.33
2022-12-22T14:25:52.528Z,1.70
2022-12-22T14:30:58.464Z,3.20
2022-12-22T14:36:23.936Z,1.25
2022-12-22T14:41:56.710Z,1.80
2022-12-22T14:47:11.808Z,1.90
2022-12-22T14:52:37.748Z,1.80
2022-12-22T14:57:42.258Z,1.95
2022-12-22T15:03:04.890Z,2.78
2022-12-22T15:08:27.237Z,2.85
2022-12-22T15:13:30.591Z,2.85
2022-12-22T15:18:33.193Z,3.65
2022-12-22T15:23:34.940Z,4.45
2022-12-22T15:28:36.960Z,5.53
2022-12-22T15:33:38.639Z,6.18
2022-12-22T15:38:41.290Z,6.78
2022-12-22T15:43:59.311Z,6.82
2022-12-22T15:49:01.737Z,8.13
2022-12-22T15:54:04.717Z,7.38
2022-12-22T15:59:09.682Z,7.78
2022-12-22T16:04:11.470Z,7.97
2022-12-22T16:09:25.368Z,7.82
2022-12-22T16:14:27.171Z,8.02
2022-12-22T16:19:28.968Z,7.95
2022-12-22T16:24:35.475Z,7.53
2022-12-22T16:29:37.895Z,7.32
2022-12-22T16:34:39.550Z,6.93
2022-12-22T16:39:41.272Z,7.35
2022-12-22T16:45:02.349Z,7.13
2022-12-22T16:50:06.920Z,6.78
2022-12-22T16:55:20.796Z,6.60
2022-12-22T17:00:28.586Z,7.18
2022-12-22T17:05:44.831Z,6.50
2022-12-22T17:10:47.401Z,6.75
2022-12-22T17:15:49.142Z,6.10
2022-12-22T17:20:55.115Z,6.88
2022-12-22T17:25:58.963Z,7.13
2022-12-22T17:31:00.948Z,7.20
2022-12-22T17:36:02.795Z,6.65
2022-12-22T17:41:04.604Z,7.45
2022-12-22T17:46:14.873Z,6.88
2022-12-22T17:51:28.516Z,6.50
2022-12-22T17:56:30.987Z,6.78
2022-12-22T18:01:33.796Z,6.47
2022-12-22T18:06:37.857Z,6.28
2022-12-22T18:11:45.673Z,5.95
2022-12-22T18:16:47.933Z,6.22
2022-12-22T18:21:49.763Z,5.43
2022-12-22T18:26:51.481Z,6.07
2022-12-22T18:31:53.352Z,5.47
2022-12-22T18:36:55.306Z,5.85
2022-12-22T18:41:57.712Z,6.05
2022-12-22T18:46:59.585Z,5.47
2022-12-22T18:52:01.375Z,6.40
2022-12-22T18:57:03.890Z,6.10
2022-12-22T19:02:23.514Z,7.22
2022-12-22T19:07:26.097Z,6.75
2022-12-22T19:12:28.416Z,8.35
2022-12-22T19:17:30.258Z,8.43
2022-12-22T19:22:32.038Z,9.32
2022-12-22T19:27:33.828Z,8.85
2022-12-22T19:32:44.344Z,8.45
2022-12-22T19:37:47.481Z,9.00
2022-12-22T19:42:53.249Z,7.38
2022-12-22T19:47:56.900Z,7.43
2022-12-22T19:52:59.614Z,6.75
2022-12-22T19:58:02.384Z,8.10
2022-12-22T20:03:05.953Z,7.38
2022-12-22T20:08:07.887Z,8.02
2022-12-22T20:13:19.567Z,7.47
2022-12-22T20:18:24.221Z,12.85
2022-12-22T20:23:27.984Z,9.43
2022-12-22T20:28:33.465Z,7.85
2022-12-22T20:33:35.391Z,8.80
2022-12-22T20:38:39.550Z,9.18
2022-12-22T20:43:41.927Z,10.15
2022-12-22T20:48:50.789Z,9.80
2022-12-22T20:53:53.527Z,9.77
2022-12-22T20:58:56.773Z,8.52
2022-12-22T21:03:58.655Z,9.13
2022-12-22T21:09:01.186Z,9.55
2022-12-22T21:14:02.928Z,8.85
2022-12-22T21:19:05.713Z,9.02
2022-12-22T21:24:07.618Z,9.80
2022-12-22T21:29:21.429Z,8.27
2022-12-22T21:34:23.372Z,9.52
2022-12-22T21:39:39.379Z,9.05
2022-12-22T21:44:41.331Z,9.40
2022-12-22T21:49:43.698Z,7.85
2022-12-22T21:54:45.530Z,9.13
2022-12-22T21:59:47.349Z,8.63
2022-12-22T22:04:54.479Z,9.95
2022-12-22T22:09:56.824Z,9.60
2022-12-22T22:14:59.724Z,10.00
2022-12-22T22:20:01.730Z,8.63
2022-12-22T22:25:03.934Z,8.85
2022-12-22T22:30:07.614Z,8.07
2022-12-22T22:35:10.060Z,8.65
2022-12-22T22:40:14.691Z,8.38
2022-12-22T22:45:23.464Z,8.75
2022-12-22T22:50:25.344Z,7.13
2022-12-22T22:55:26.993Z,6.13
2022-12-22T23:00:28.682Z,5.25
2022-12-22T23:05:30.489Z,5.07
2022-12-22T23:10:37.704Z,4.80
2022-12-22T23:15:43.095Z,4.85
2022-12-22T23:20:44.963Z,4.68
2022-12-22T23:25:49.951Z,4.72
2022-12-22T23:30:52.970Z,4.45
2022-12-22T23:35:54.751Z,3.80
2022-12-22T23:41:08.503Z,4.30
2022-12-22T23:46:12.689Z,3.88
2022-12-22T23:51:14.435Z,3.50
2022-12-22T23:56:16.322Z,3.30
